sensor_id;sensor_type;location;lat;lon;timestamp;P1;durP1;ratioP1;P2;durP2;ratioP2
48897;SDS011;34713;50.038;20.000;2022-11-20T00:01:12;63.28;;;35.65;;
48897;SDS011;34713;50.038;20.000;2022-11-20T00:03:41;58.40;;;33.25;;
48897;SDS011;34713;50.038;20.000;2022-11-20T00:06:09;59.15;;;33.25;;
48897;SDS011;34713;50.038;20.000;2022-11-20T00:08:37;61.30;;;34.63;;
48897;SDS011;34713;50.038;20.000;2022-11-20T00:11:04;61.23;;;34.20;;
48897;SDS011;34713;50.038;20.000;2022-11-20T00:13:45;59.25;;;33.23;;
48897;SDS011;34713;50.038;20.000;2022-11-20T00:16:14;59.80;;;33.53;;
48897;SDS011;34713;50.038;20.000;2022-11-20T00:18:43;67.62;;;36.15;;
48897;SDS011;34713;50.038;20.000;2022-11-20T00:21:10;64.80;;;34.55;;
48897;SDS011;34713;50.038;20.000;2022-11-20T00:23:40;58.90;;;32.90;;
48897;SDS011;34713;50.038;20.000;2022-11-20T00:26:08;59.65;;;34.08;;
48897;SDS011;34713;50.038;20.000;2022-11-20T00:28:37;57.25;;;33.50;;
48897;SDS011;34713;50.038;20.000;2022-11-20T00:31:13;60.78;;;32.38;;
48897;SDS011;34713;50.038;20.000;2022-11-20T00:33:41;60.12;;;34.30;;
48897;SDS011;34713;50.038;20.000;2022-11-20T00:36:09;55.90;;;33.30;;
48897;SDS011;34713;50.038;20.000;2022-11-20T00:38:41;59.15;;;33.78;;
48897;SDS011;34713;50.038;20.000;2022-11-20T00:41:08;57.60;;;33.25;;
48897;SDS011;34713;50.038;20.000;2022-11-20T00:43:36;56.95;;;33.08;;
48897;SDS011;34713;50.038;20.000;2022-11-20T00:46:12;56.50;;;32.58;;
48897;SDS011;34713;50.038;20.000;2022-11-20T00:48:39;63.08;;;33.73;;
48897;SDS011;34713;50.038;20.000;2022-11-20T00:51:05;55.20;;;32.42;;
48897;SDS011;34713;50.038;20.000;2022-11-20T00:53:31;59.18;;;33.48;;
48897;SDS011;34713;50.038;20.000;2022-11-20T00:56:01;63.02;;;33.85;;
48897;SDS011;34713;50.038;20.000;2022-11-20T00:58:30;64.37;;;34.18;;
48897;SDS011;34713;50.038;20.000;2022-11-20T01:01:02;58.42;;;33.40;;
48897;SDS011;34713;50.038;20.000;2022-11-20T01:03:32;60.28;;;33.85;;
48897;SDS011;34713;50.038;20.000;2022-11-20T01:06:00;57.80;;;33.00;;
48897;SDS011;34713;50.038;20.000;2022-11-20T01:08:32;73.78;;;36.93;;
48897;SDS011;34713;50.038;20.000;2022-11-20T01:11:03;64.25;;;36.03;;
48897;SDS011;34713;50.038;20.000;2022-11-20T01:13:36;68.05;;;37.23;;
48897;SDS011;34713;50.038;20.000;2022-11-20T01:16:10;71.37;;;40.30;;
48897;SDS011;34713;50.038;20.000;2022-11-20T01:18:42;68.30;;;39.05;;
48897;SDS011;34713;50.038;20.000;2022-11-20T01:21:13;72.10;;;39.03;;
48897;SDS011;34713;50.038;20.000;2022-11-20T01:23:49;69.60;;;38.90;;
48897;SDS011;34713;50.038;20.000;2022-11-20T01:26:16;69.67;;;37.78;;
48897;SDS011;34713;50.038;20.000;2022-11-20T01:28:47;74.62;;;38.65;;
48897;SDS011;34713;50.038;20.000;2022-11-20T01:31:15;78.22;;;40.38;;
48897;SDS011;34713;50.038;20.000;2022-11-20T01:33:48;75.08;;;40.08;;
48897;SDS011;34713;50.038;20.000;2022-11-20T01:36:17;82.02;;;41.20;;
48897;SDS011;34713;50.038;20.000;2022-11-20T01:38:46;73.70;;;40.60;;
48897;SDS011;34713;50.038;20.000;2022-11-20T01:41:12;71.30;;;38.98;;
48897;SDS011;34713;50.038;20.000;2022-11-20T01:43:42;85.15;;;42.08;;
48897;SDS011;34713;50.038;20.000;2022-11-20T01:46:15;80.42;;;43.78;;
48897;SDS011;34713;50.038;20.000;2022-11-20T01:54:03;71.57;;;39.00;;
48897;SDS011;34713;50.038;20.000;2022-11-20T01:56:31;72.90;;;40.40;;
48897;SDS011;34713;50.038;20.000;2022-11-20T01:59:01;70.70;;;38.10;;
48897;SDS011;34713;50.038;20.000;2022-11-20T02:01:29;73.28;;;39.70;;
48897;SDS011;34713;50.038;20.000;2022-11-20T02:03:55;74.70;;;37.73;;
48897;SDS011;34713;50.038;20.000;2022-11-20T02:06:29;74.92;;;40.78;;
48897;SDS011;34713;50.038;20.000;2022-11-20T02:09:07;71.42;;;39.42;;
48897;SDS011;34713;50.038;20.000;2022-11-20T02:11:33;77.45;;;41.73;;
48897;SDS011;34713;50.038;20.000;2022-11-20T02:13:58;76.65;;;40.25;;
48897;SDS011;34713;50.038;20.000;2022-11-20T02:16:26;73.15;;;39.27;;
48897;SDS011;34713;50.038;20.000;2022-11-20T02:18:56;80.10;;;40.15;;
48897;SDS011;34713;50.038;20.000;2022-11-20T02:21:38;75.10;;;39.18;;
48897;SDS011;34713;50.038;20.000;2022-11-20T02:24:14;80.50;;;40.92;;
48897;SDS011;34713;50.038;20.000;2022-11-20T02:26:54;88.33;;;44.10;;
48897;SDS011;34713;50.038;20.000;2022-11-20T02:29:28;83.15;;;40.28;;
48897;SDS011;34713;50.038;20.000;2022-11-20T02:32:19;83.12;;;42.48;;
48897;SDS011;34713;50.038;20.000;2022-11-20T02:34:48;77.72;;;40.88;;
48897;SDS011;34713;50.038;20.000;2022-11-20T02:37:14;86.67;;;41.63;;
48897;SDS011;34713;50.038;20.000;2022-11-20T02:39:41;88.80;;;45.23;;
48897;SDS011;34713;50.038;20.000;2022-11-20T02:42:08;90.00;;;44.83;;
48897;SDS011;34713;50.038;20.000;2022-11-20T02:44:34;84.72;;;43.85;;
48897;SDS011;34713;50.038;20.000;2022-11-20T02:47:00;82.00;;;41.98;;
48897;SDS011;34713;50.038;20.000;2022-11-20T02:49:26;85.55;;;42.53;;
48897;SDS011;34713;50.038;20.000;2022-11-20T02:51:51;73.35;;;40.38;;
48897;SDS011;34713;50.038;20.000;2022-11-20T02:54:17;84.77;;;41.10;;
48897;SDS011;34713;50.038;20.000;2022-11-20T02:56:43;76.30;;;38.53;;
48897;SDS011;34713;50.038;20.000;2022-11-20T02:59:09;82.20;;;40.88;;
48897;SDS011;34713;50.038;20.000;2022-11-20T03:01:35;79.67;;;40.05;;
48897;SDS011;34713;50.038;20.000;2022-11-20T03:04:01;87.65;;;43.78;;
48897;SDS011;34713;50.038;20.000;2022-11-20T03:06:27;93.30;;;44.27;;
48897;SDS011;34713;50.038;20.000;2022-11-20T03:08:53;95.07;;;48.50;;
48897;SDS011;34713;50.038;20.000;2022-11-20T03:11:19;83.70;;;43.85;;
48897;SDS011;34713;50.038;20.000;2022-11-20T03:13:45;91.63;;;45.55;;
48897;SDS011;34713;50.038;20.000;2022-11-20T03:16:12;90.05;;;43.75;;
48897;SDS011;34713;50.038;20.000;2022-11-20T03:18:41;81.60;;;43.70;;
48897;SDS011;34713;50.038;20.000;2022-11-20T03:21:08;89.62;;;43.25;;
48897;SDS011;34713;50.038;20.000;2022-11-20T03:23:36;91.95;;;44.83;;
48897;SDS011;34713;50.038;20.000;2022-11-20T03:28:48;91.47;;;42.70;;
48897;SDS011;34713;50.038;20.000;2022-11-20T03:31:23;95.00;;;43.90;;
48897;SDS011;34713;50.038;20.000;2022-11-20T03:33:52;97.55;;;43.73;;
48897;SDS011;34713;50.038;20.000;2022-11-20T03:36:19;99.52;;;44.58;;
48897;SDS011;34713;50.038;20.000;2022-11-20T03:38:46;102.25;;;46.83;;
48897;SDS011;34713;50.038;20.000;2022-11-20T03:41:14;96.32;;;44.67;;
48897;SDS011;34713;50.038;20.000;2022-11-20T03:43:49;98.05;;;45.43;;
48897;SDS011;34713;50.038;20.000;2022-11-20T03:46:17;98.27;;;42.25;;
48897;SDS011;34713;50.038;20.000;2022-11-20T03:48:43;91.57;;;41.55;;
48897;SDS011;34713;50.038;20.000;2022-11-20T03:51:13;86.65;;;41.75;;
48897;SDS011;34713;50.038;20.000;2022-11-20T03:53:42;96.80;;;43.92;;
48897;SDS011;34713;50.038;20.000;2022-11-20T03:56:11;96.30;;;42.88;;
48897;SDS011;34713;50.038;20.000;2022-11-20T03:58:41;97.88;;;42.27;;
48897;SDS011;34713;50.038;20.000;2022-11-20T04:01:08;92.30;;;42.40;;
48897;SDS011;34713;50.038;20.000;2022-11-20T04:03:38;101.42;;;44.42;;
48897;SDS011;34713;50.038;20.000;2022-11-20T04:06:09;88.97;;;41.25;;
48897;SDS011;34713;50.038;20.000;2022-11-20T04:08:38;96.75;;;43.20;;
48897;SDS011;34713;50.038;20.000;2022-11-20T04:11:11;91.17;;;42.35;;
48897;SDS011;34713;50.038;20.000;2022-11-20T04:13:37;87.95;;;43.30;;
48897;SDS011;34713;50.038;20.000;2022-11-20T04:16:03;88.97;;;43.05;;
48897;SDS011;34713;50.038;20.000;2022-11-20T04:18:31;99.83;;;44.20;;
48897;SDS011;34713;50.038;20.000;2022-11-20T04:20:57;98.10;;;45.80;;
48897;SDS011;34713;50.038;20.000;2022-11-20T04:23:24;96.67;;;43.92;;
48897;SDS011;34713;50.038;20.000;2022-11-20T04:25:51;100.12;;;46.77;;
48897;SDS011;34713;50.038;20.000;2022-11-20T04:28:16;91.67;;;43.20;;
48897;SDS011;34713;50.038;20.000;2022-11-20T04:30:42;99.28;;;44.85;;
48897;SDS011;34713;50.038;20.000;2022-11-20T04:33:08;99.32;;;41.28;;
48897;SDS011;34713;50.038;20.000;2022-11-20T04:35:34;87.57;;;43.00;;
48897;SDS011;34713;50.038;20.000;2022-11-20T04:38:01;90.92;;;43.35;;
48897;SDS011;34713;50.038;20.000;2022-11-20T04:40:27;91.75;;;44.40;;
48897;SDS011;34713;50.038;20.000;2022-11-20T04:42:54;95.07;;;44.85;;
48897;SDS011;34713;50.038;20.000;2022-11-20T04:45:22;89.70;;;43.25;;
48897;SDS011;34713;50.038;20.000;2022-11-20T04:47:48;91.75;;;46.60;;
48897;SDS011;34713;50.038;20.000;2022-11-20T04:50:14;91.63;;;43.58;;
48897;SDS011;34713;50.038;20.000;2022-11-20T04:52:40;93.65;;;44.18;;
48897;SDS011;34713;50.038;20.000;2022-11-20T04:55:06;97.42;;;44.45;;
48897;SDS011;34713;50.038;20.000;2022-11-20T04:57:33;99.58;;;45.33;;
48897;SDS011;34713;50.038;20.000;2022-11-20T04:59:58;108.97;;;46.13;;
48897;SDS011;34713;50.038;20.000;2022-11-20T05:02:24;96.32;;;45.75;;
48897;SDS011;34713;50.038;20.000;2022-11-20T05:04:50;90.00;;;44.25;;
48897;SDS011;34713;50.038;20.000;2022-11-20T05:07:16;93.75;;;43.65;;
48897;SDS011;34713;50.038;20.000;2022-11-20T05:09:42;105.55;;;47.78;;
48897;SDS011;34713;50.038;20.000;2022-11-20T05:12:08;99.72;;;46.40;;
48897;SDS011;34713;50.038;20.000;2022-11-20T05:14:34;104.70;;;48.65;;
48897;SDS011;34713;50.038;20.000;2022-11-20T05:17:00;102.12;;;44.67;;
48897;SDS011;34713;50.038;20.000;2022-11-20T05:19:26;112.05;;;48.23;;
48897;SDS011;34713;50.038;20.000;2022-11-20T05:21:52;115.42;;;46.65;;
48897;SDS011;34713;50.038;20.000;2022-11-20T05:24:17;96.60;;;45.52;;
48897;SDS011;34713;50.038;20.000;2022-11-20T05:26:43;106.85;;;47.35;;
48897;SDS011;34713;50.038;20.000;2022-11-20T05:29:11;113.72;;;48.23;;
48897;SDS011;34713;50.038;20.000;2022-11-20T05:31:38;111.80;;;45.98;;
48897;SDS011;34713;50.038;20.000;2022-11-20T05:34:05;118.50;;;48.68;;
48897;SDS011;34713;50.038;20.000;2022-11-20T05:36:32;103.02;;;44.65;;
48897;SDS011;34713;50.038;20.000;2022-11-20T05:38:58;106.43;;;46.55;;
48897;SDS011;34713;50.038;20.000;2022-11-20T05:41:25;114.85;;;48.80;;
48897;SDS011;34713;50.038;20.000;2022-11-20T05:43:51;114.03;;;48.80;;
48897;SDS011;34713;50.038;20.000;2022-11-20T05:46:18;107.50;;;46.33;;
48897;SDS011;34713;50.038;20.000;2022-11-20T05:48:46;109.07;;;45.63;;
48897;SDS011;34713;50.038;20.000;2022-11-20T05:51:14;106.05;;;48.48;;
48897;SDS011;34713;50.038;20.000;2022-11-20T05:53:42;98.07;;;46.08;;
48897;SDS011;34713;50.038;20.000;2022-11-20T05:56:10;109.55;;;47.08;;
48897;SDS011;34713;50.038;20.000;2022-11-20T05:58:38;107.30;;;48.78;;
48897;SDS011;34713;50.038;20.000;2022-11-20T06:03:45;107.45;;;49.60;;
48897;SDS011;34713;50.038;20.000;2022-11-20T06:06:13;106.95;;;49.40;;
48897;SDS011;34713;50.038;20.000;2022-11-20T06:08:40;95.70;;;45.40;;
48897;SDS011;34713;50.038;20.000;2022-11-20T06:11:07;105.03;;;49.23;;
48897;SDS011;34713;50.038;20.000;2022-11-20T06:13:35;101.92;;;47.90;;
48897;SDS011;34713;50.038;20.000;2022-11-20T06:16:01;100.53;;;47.00;;
48897;SDS011;34713;50.038;20.000;2022-11-20T06:18:28;94.32;;;44.13;;
48897;SDS011;34713;50.038;20.000;2022-11-20T06:21:04;92.88;;;45.43;;
48897;SDS011;34713;50.038;20.000;2022-11-20T06:23:36;95.77;;;45.70;;
48897;SDS011;34713;50.038;20.000;2022-11-20T06:26:04;91.15;;;44.13;;
48897;SDS011;34713;50.038;20.000;2022-11-20T06:28:33;97.55;;;43.90;;
48897;SDS011;34713;50.038;20.000;2022-11-20T06:31:00;98.70;;;46.53;;
48897;SDS011;34713;50.038;20.000;2022-11-20T06:33:26;93.42;;;42.95;;
48897;SDS011;34713;50.038;20.000;2022-11-20T06:35:52;96.02;;;42.40;;
48897;SDS011;34713;50.038;20.000;2022-11-20T06:38:24;99.15;;;44.98;;
48897;SDS011;34713;50.038;20.000;2022-11-20T06:40:51;78.57;;;39.67;;
48897;SDS011;34713;50.038;20.000;2022-11-20T06:43:17;80.77;;;42.10;;
48897;SDS011;34713;50.038;20.000;2022-11-20T06:45:43;88.62;;;41.90;;
48897;SDS011;34713;50.038;20.000;2022-11-20T06:48:09;87.47;;;41.77;;
48897;SDS011;34713;50.038;20.000;2022-11-20T06:50:38;86.75;;;39.53;;
48897;SDS011;34713;50.038;20.000;2022-11-20T06:53:04;82.62;;;40.67;;
48897;SDS011;34713;50.038;20.000;2022-11-20T06:55:30;89.45;;;42.90;;
48897;SDS011;34713;50.038;20.000;2022-11-20T06:57:57;86.53;;;43.05;;
48897;SDS011;34713;50.038;20.000;2022-11-20T07:00:23;81.20;;;41.80;;
48897;SDS011;34713;50.038;20.000;2022-11-20T07:02:49;93.65;;;44.30;;
48897;SDS011;34713;50.038;20.000;2022-11-20T07:05:15;86.78;;;44.67;;
48897;SDS011;34713;50.038;20.000;2022-11-20T07:07:42;86.12;;;42.93;;
48897;SDS011;34713;50.038;20.000;2022-11-20T07:10:08;90.83;;;44.38;;
48897;SDS011;34713;50.038;20.000;2022-11-20T07:12:35;88.55;;;42.27;;
48897;SDS011;34713;50.038;20.000;2022-11-20T07:15:01;95.57;;;44.03;;
48897;SDS011;34713;50.038;20.000;2022-11-20T07:17:26;106.12;;;47.67;;
48897;SDS011;34713;50.038;20.000;2022-11-20T07:19:52;105.52;;;47.73;;
48897;SDS011;34713;50.038;20.000;2022-11-20T07:22:18;100.05;;;44.38;;
48897;SDS011;34713;50.038;20.000;2022-11-20T07:24:45;106.85;;;49.18;;
48897;SDS011;34713;50.038;20.000;2022-11-20T07:27:11;101.92;;;47.03;;
48897;SDS011;34713;50.038;20.000;2022-11-20T07:29:37;109.63;;;51.95;;
48897;SDS011;34713;50.038;20.000;2022-11-20T07:32:03;105.32;;;47.23;;
48897;SDS011;34713;50.038;20.000;2022-11-20T07:34:29;106.58;;;47.50;;
48897;SDS011;34713;50.038;20.000;2022-11-20T07:36:55;110.83;;;50.92;;
48897;SDS011;34713;50.038;20.000;2022-11-20T07:39:21;114.15;;;49.50;;
48897;SDS011;34713;50.038;20.000;2022-11-20T07:41:46;108.30;;;50.23;;
48897;SDS011;34713;50.038;20.000;2022-11-20T07:44:12;99.07;;;48.55;;
48897;SDS011;34713;50.038;20.000;2022-11-20T07:46:38;114.75;;;48.30;;
48897;SDS011;34713;50.038;20.000;2022-11-20T07:49:03;91.90;;;43.58;;
48897;SDS011;34713;50.038;20.000;2022-11-20T07:51:29;105.15;;;51.05;;
48897;SDS011;34713;50.038;20.000;2022-11-20T07:53:55;105.07;;;47.27;;
48897;SDS011;34713;50.038;20.000;2022-11-20T07:56:21;97.35;;;46.13;;
48897;SDS011;34713;50.038;20.000;2022-11-20T07:58:46;89.52;;;42.88;;
48897;SDS011;34713;50.038;20.000;2022-11-20T08:01:12;93.70;;;44.08;;
48897;SDS011;34713;50.038;20.000;2022-11-20T08:03:38;94.05;;;43.58;;
48897;SDS011;34713;50.038;20.000;2022-11-20T08:06:04;84.45;;;41.00;;
48897;SDS011;34713;50.038;20.000;2022-11-20T08:08:30;89.30;;;42.80;;
48897;SDS011;34713;50.038;20.000;2022-11-20T08:10:56;86.80;;;41.60;;
48897;SDS011;34713;50.038;20.000;2022-11-20T08:13:41;97.05;;;41.98;;
48897;SDS011;34713;50.038;20.000;2022-11-20T08:16:25;81.90;;;38.92;;
48897;SDS011;34713;50.038;20.000;2022-11-20T08:18:51;82.12;;;40.92;;
48897;SDS011;34713;50.038;20.000;2022-11-20T08:21:17;88.03;;;43.52;;
48897;SDS011;34713;50.038;20.000;2022-11-20T08:23:43;95.30;;;46.45;;
48897;SDS011;34713;50.038;20.000;2022-11-20T08:26:08;86.42;;;43.23;;
48897;SDS011;34713;50.038;20.000;2022-11-20T08:28:34;83.10;;;42.10;;
48897;SDS011;34713;50.038;20.000;2022-11-20T08:31:00;84.60;;;41.48;;
48897;SDS011;34713;50.038;20.000;2022-11-20T08:33:28;82.72;;;40.23;;
48897;SDS011;34713;50.038;20.000;2022-11-20T08:35:58;80.03;;;40.75;;
48897;SDS011;34713;50.038;20.000;2022-11-20T08:38:26;86.37;;;41.30;;
48897;SDS011;34713;50.038;20.000;2022-11-20T08:40:52;81.20;;;38.53;;
48897;SDS011;34713;50.038;20.000;2022-11-20T08:43:46;75.40;;;37.08;;
48897;SDS011;34713;50.038;20.000;2022-11-20T08:46:12;81.97;;;42.58;;
48897;SDS011;34713;50.038;20.000;2022-11-20T08:48:38;91.87;;;43.02;;
48897;SDS011;34713;50.038;20.000;2022-11-20T08:51:04;94.80;;;47.00;;
48897;SDS011;34713;50.038;20.000;2022-11-20T08:53:30;91.70;;;45.15;;
48897;SDS011;34713;50.038;20.000;2022-11-20T08:55:58;97.02;;;47.20;;
48897;SDS011;34713;50.038;20.000;2022-11-20T08:58:24;91.75;;;46.15;;
48897;SDS011;34713;50.038;20.000;2022-11-20T09:00:51;95.25;;;46.70;;
48897;SDS011;34713;50.038;20.000;2022-11-20T09:03:18;96.63;;;46.33;;
48897;SDS011;34713;50.038;20.000;2022-11-20T09:05:44;97.08;;;46.48;;
48897;SDS011;34713;50.038;20.000;2022-11-20T09:08:10;91.02;;;48.05;;
48897;SDS011;34713;50.038;20.000;2022-11-20T09:10:36;92.72;;;46.68;;
48897;SDS011;34713;50.038;20.000;2022-11-20T09:13:01;99.65;;;49.10;;
48897;SDS011;34713;50.038;20.000;2022-11-20T09:15:27;90.47;;;47.45;;
48897;SDS011;34713;50.038;20.000;2022-11-20T09:17:57;93.22;;;46.73;;
48897;SDS011;34713;50.038;20.000;2022-11-20T09:20:29;93.47;;;46.75;;
48897;SDS011;34713;50.038;20.000;2022-11-20T09:22:56;93.85;;;45.45;;
48897;SDS011;34713;50.038;20.000;2022-11-20T09:25:23;92.27;;;46.58;;
48897;SDS011;34713;50.038;20.000;2022-11-20T09:27:54;93.97;;;46.75;;
48897;SDS011;34713;50.038;20.000;2022-11-20T09:30:21;102.02;;;47.62;;
48897;SDS011;34713;50.038;20.000;2022-11-20T09:32:46;92.80;;;48.40;;
48897;SDS011;34713;50.038;20.000;2022-11-20T09:35:12;90.97;;;46.37;;
48897;SDS011;34713;50.038;20.000;2022-11-20T09:37:39;96.40;;;47.60;;
48897;SDS011;34713;50.038;20.000;2022-11-20T09:40:06;89.90;;;46.18;;
48897;SDS011;34713;50.038;20.000;2022-11-20T09:42:45;96.87;;;48.73;;
48897;SDS011;34713;50.038;20.000;2022-11-20T09:51:30;98.22;;;48.40;;
48897;SDS011;34713;50.038;20.000;2022-11-20T09:54:16;100.53;;;49.25;;
48897;SDS011;34713;50.038;20.000;2022-11-20T09:56:57;98.20;;;50.95;;
48897;SDS011;34713;50.038;20.000;2022-11-20T09:59:36;102.05;;;50.63;;
48897;SDS011;34713;50.038;20.000;2022-11-20T10:04:51;106.92;;;52.60;;
48897;SDS011;34713;50.038;20.000;2022-11-20T10:07:47;106.75;;;52.83;;
48897;SDS011;34713;50.038;20.000;2022-11-20T10:10:45;110.60;;;54.73;;
48897;SDS011;34713;50.038;20.000;2022-11-20T10:13:17;107.95;;;54.08;;
48897;SDS011;34713;50.038;20.000;2022-11-20T10:21:49;119.87;;;57.43;;
48897;SDS011;34713;50.038;20.000;2022-11-20T10:30:18;126.10;;;59.77;;
48897;SDS011;34713;50.038;20.000;2022-11-20T10:32:48;127.70;;;58.42;;
48897;SDS011;34713;50.038;20.000;2022-11-20T10:35:28;134.25;;;61.48;;
48897;SDS011;34713;50.038;20.000;2022-11-20T10:38:23;138.67;;;60.70;;
48897;SDS011;34713;50.038;20.000;2022-11-20T10:40:59;125.12;;;61.20;;
48897;SDS011;34713;50.038;20.000;2022-11-20T10:43:46;140.32;;;60.83;;
48897;SDS011;34713;50.038;20.000;2022-11-20T10:46:15;139.70;;;65.00;;
48897;SDS011;34713;50.038;20.000;2022-11-20T10:48:45;133.52;;;60.15;;
48897;SDS011;34713;50.038;20.000;2022-11-20T10:57:07;128.65;;;61.25;;
48897;SDS011;34713;50.038;20.000;2022-11-20T11:02:32;122.53;;;56.23;;
48897;SDS011;34713;50.038;20.000;2022-11-20T11:07:56;117.62;;;60.15;;
48897;SDS011;34713;50.038;20.000;2022-11-20T11:10:23;111.30;;;57.33;;
48897;SDS011;34713;50.038;20.000;2022-11-20T11:13:06;117.55;;;57.17;;
48897;SDS011;34713;50.038;20.000;2022-11-20T11:15:37;102.87;;;53.48;;
48897;SDS011;34713;50.038;20.000;2022-11-20T11:18:09;110.65;;;55.63;;
48897;SDS011;34713;50.038;20.000;2022-11-20T11:20:36;104.72;;;54.05;;
48897;SDS011;34713;50.038;20.000;2022-11-20T11:23:03;104.30;;;52.05;;
48897;SDS011;34713;50.038;20.000;2022-11-20T11:25:36;106.15;;;53.52;;
48897;SDS011;34713;50.038;20.000;2022-11-20T11:28:02;98.87;;;50.90;;
48897;SDS011;34713;50.038;20.000;2022-11-20T11:30:46;100.85;;;49.67;;
48897;SDS011;34713;50.038;20.000;2022-11-20T11:33:24;97.20;;;49.67;;
48897;SDS011;34713;50.038;20.000;2022-11-20T11:35:56;91.40;;;49.67;;
48897;SDS011;34713;50.038;20.000;2022-11-20T11:38:32;90.77;;;49.42;;
48897;SDS011;34713;50.038;20.000;2022-11-20T11:41:05;95.45;;;49.15;;
48897;SDS011;34713;50.038;20.000;2022-11-20T11:43:56;94.60;;;49.33;;
48897;SDS011;34713;50.038;20.000;2022-11-20T11:46:52;94.58;;;51.42;;
48897;SDS011;34713;50.038;20.000;2022-11-20T11:49:21;101.18;;;52.83;;
48897;SDS011;34713;50.038;20.000;2022-11-20T12:07:59;103.30;;;55.35;;
48897;SDS011;34713;50.038;20.000;2022-11-20T12:14:01;99.47;;;51.55;;
48897;SDS011;34713;50.038;20.000;2022-11-20T12:16:50;96.67;;;53.65;;
48897;SDS011;34713;50.038;20.000;2022-11-20T12:19:18;99.13;;;52.50;;
48897;SDS011;34713;50.038;20.000;2022-11-20T12:30:39;95.40;;;49.60;;
48897;SDS011;34713;50.038;20.000;2022-11-20T12:41:44;100.07;;;50.67;;
48897;SDS011;34713;50.038;20.000;2022-11-20T12:56:55;99.90;;;51.28;;
48897;SDS011;34713;50.038;20.000;2022-11-20T12:59:31;94.95;;;52.05;;
48897;SDS011;34713;50.038;20.000;2022-11-20T13:08:07;97.35;;;50.55;;
48897;SDS011;34713;50.038;20.000;2022-11-20T13:10:41;97.27;;;51.90;;
48897;SDS011;34713;50.038;20.000;2022-11-20T13:13:23;101.45;;;54.03;;
48897;SDS011;34713;50.038;20.000;2022-11-20T13:16:04;103.60;;;54.00;;
48897;SDS011;34713;50.038;20.000;2022-11-20T13:18:33;104.90;;;55.52;;
48897;SDS011;34713;50.038;20.000;2022-11-20T13:21:02;110.35;;;57.13;;
48897;SDS011;34713;50.038;20.000;2022-11-20T13:23:42;111.47;;;55.33;;
48897;SDS011;34713;50.038;20.000;2022-11-20T13:26:15;113.03;;;55.50;;
48897;SDS011;34713;50.038;20.000;2022-11-20T13:28:45;107.50;;;55.35;;
48897;SDS011;34713;50.038;20.000;2022-11-20T13:31:29;108.30;;;57.25;;
48897;SDS011;34713;50.038;20.000;2022-11-20T13:36:27;100.90;;;54.25;;
48897;SDS011;34713;50.038;20.000;2022-11-20T13:38:55;111.60;;;54.48;;
48897;SDS011;34713;50.038;20.000;2022-11-20T13:46:45;119.05;;;59.03;;
48897;SDS011;34713;50.038;20.000;2022-11-20T13:49:22;117.75;;;59.13;;
48897;SDS011;34713;50.038;20.000;2022-11-20T13:51:50;120.22;;;58.40;;
48897;SDS011;34713;50.038;20.000;2022-11-20T13:54:43;119.30;;;57.25;;
48897;SDS011;34713;50.038;20.000;2022-11-20T13:57:23;115.67;;;57.80;;
48897;SDS011;34713;50.038;20.000;2022-11-20T14:00:05;122.53;;;56.28;;
48897;SDS011;34713;50.038;20.000;2022-11-20T14:02:44;116.25;;;57.67;;
48897;SDS011;34713;50.038;20.000;2022-11-20T14:05:21;110.70;;;56.00;;
48897;SDS011;34713;50.038;20.000;2022-11-20T14:07:48;106.70;;;53.83;;
48897;SDS011;34713;50.038;20.000;2022-11-20T14:10:21;111.95;;;58.10;;
48897;SDS011;34713;50.038;20.000;2022-11-20T14:12:50;120.13;;;58.73;;
48897;SDS011;34713;50.038;20.000;2022-11-20T14:17:57;117.85;;;58.90;;
48897;SDS011;34713;50.038;20.000;2022-11-20T14:20:28;111.83;;;56.42;;
48897;SDS011;34713;50.038;20.000;2022-11-20T14:22:56;112.40;;;55.33;;
48897;SDS011;34713;50.038;20.000;2022-11-20T14:25:23;107.52;;;53.55;;
48897;SDS011;34713;50.038;20.000;2022-11-20T14:27:59;105.58;;;53.38;;
48897;SDS011;34713;50.038;20.000;2022-11-20T14:30:28;100.72;;;50.67;;
48897;SDS011;34713;50.038;20.000;2022-11-20T14:33:04;103.78;;;55.20;;
48897;SDS011;34713;50.038;20.000;2022-11-20T14:35:31;110.40;;;57.83;;
48897;SDS011;34713;50.038;20.000;2022-11-20T14:38:04;112.32;;;57.00;;
48897;SDS011;34713;50.038;20.000;2022-11-20T14:40:35;106.90;;;54.77;;
48897;SDS011;34713;50.038;20.000;2022-11-20T14:43:02;104.95;;;53.52;;
48897;SDS011;34713;50.038;20.000;2022-11-20T14:45:59;99.45;;;51.80;;
48897;SDS011;34713;50.038;20.000;2022-11-20T14:48:45;99.37;;;52.40;;
48897;SDS011;34713;50.038;20.000;2022-11-20T14:56:53;102.20;;;55.83;;
48897;SDS011;34713;50.038;20.000;2022-11-20T14:59:32;107.70;;;54.65;;
48897;SDS011;34713;50.038;20.000;2022-11-20T15:02:05;109.12;;;56.23;;
48897;SDS011;34713;50.038;20.000;2022-11-20T15:04:30;100.87;;;56.68;;
48897;SDS011;34713;50.038;20.000;2022-11-20T15:06:57;102.82;;;55.38;;
48897;SDS011;34713;50.038;20.000;2022-11-20T15:09:25;99.75;;;52.93;;
48897;SDS011;34713;50.038;20.000;2022-11-20T15:11:57;106.05;;;55.40;;
48897;SDS011;34713;50.038;20.000;2022-11-20T15:14:22;111.77;;;57.17;;
48897;SDS011;34713;50.038;20.000;2022-11-20T15:16:50;103.90;;;53.70;;
48897;SDS011;34713;50.038;20.000;2022-11-20T15:19:18;103.75;;;56.68;;
48897;SDS011;34713;50.038;20.000;2022-11-20T15:21:47;106.78;;;54.77;;
48897;SDS011;34713;50.038;20.000;2022-11-20T15:24:13;104.75;;;57.00;;
48897;SDS011;34713;50.038;20.000;2022-11-20T15:26:39;105.30;;;54.18;;
48897;SDS011;34713;50.038;20.000;2022-11-20T15:29:07;102.25;;;57.20;;
48897;SDS011;34713;50.038;20.000;2022-11-20T15:31:38;104.78;;;58.08;;
48897;SDS011;34713;50.038;20.000;2022-11-20T15:34:12;103.35;;;54.83;;
48897;SDS011;34713;50.038;20.000;2022-11-20T15:36:40;106.45;;;58.73;;
48897;SDS011;34713;50.038;20.000;2022-11-20T15:39:07;109.15;;;55.88;;
48897;SDS011;34713;50.038;20.000;2022-11-20T15:41:34;108.00;;;57.38;;
48897;SDS011;34713;50.038;20.000;2022-11-20T15:44:01;110.37;;;58.30;;
48897;SDS011;34713;50.038;20.000;2022-11-20T15:46:28;98.27;;;52.95;;
48897;SDS011;34713;50.038;20.000;2022-11-20T15:48:59;92.08;;;49.53;;
48897;SDS011;34713;50.038;20.000;2022-11-20T15:51:39;104.10;;;52.45;;
48897;SDS011;34713;50.038;20.000;2022-11-20T15:56:42;98.58;;;52.13;;
48897;SDS011;34713;50.038;20.000;2022-11-20T15:59:08;105.45;;;54.77;;
48897;SDS011;34713;50.038;20.000;2022-11-20T16:01:34;100.00;;;53.05;;
48897;SDS011;34713;50.038;20.000;2022-11-20T16:04:01;106.07;;;56.90;;
48897;SDS011;34713;50.038;20.000;2022-11-20T16:06:26;101.30;;;56.23;;
48897;SDS011;34713;50.038;20.000;2022-11-20T16:08:52;106.78;;;56.73;;
48897;SDS011;34713;50.038;20.000;2022-11-20T16:11:18;102.02;;;55.03;;
48897;SDS011;34713;50.038;20.000;2022-11-20T16:13:44;101.78;;;55.15;;
48897;SDS011;34713;50.038;20.000;2022-11-20T16:16:30;113.23;;;61.57;;